Main page
METAR-TAF:

METAR-TAF

Airports :

Mary International Airport

Mary, Turkmenistan

latitude: 37-36-24N, longitude: 061-54-05E, elevation: 222 m

Current weather observation

The report was made 42 minutes ago, at 19:00 UTC
Calm wind
Temperature 24°C
Humidity 38%
Pressure 1016 hPa
Visibility: 6000 m
Clear sky

METAR: UTAM 221900Z 00000KT 6000 SKC 24/09 Q1016 NOSIG

Time: 00:42 (19:42 UTC)

Forecast

The report was made 3 hours and 12 minutes ago, at 16:30 UTC
Forecast valid from 22 at 18 UTC to 23 at 18 UTC
Wind 10 kt from the North
Visibility: 5000 m
Scattered clouds at a height of 5000 ft
Temporary
from 22 at 18 UTC to 23 at 02 UTC
Wind 4 kt from variable directions
Becoming
from 23 at 03 UTC to 23 at 05 UTC
Wind 14 kt from the North
Visibility 10 km or more
no clouds below 1500 m and no cumulonimbus

TAF: UTAM 221630Z 2218/2318 35010KT 5000 SCT050 530009 TEMPO 2218/2302 VRB04KT NSC BECMG 2303/2305 01014KT CAVOK

Weather observations and forecasts of more than 4000 airports (METAR and TAF reports).

The available stations are represented by yellow and red dots on the map.

Hover mouse over dot to see the name of the station.

Then click to see weather observations and forecasts.

To change the map : click on the green buttons with a black cross to zoom in, on the green button with a dash to zoom out, or on the green arrows for adjacent maps.


METAR-TAF: